sensor_id;sensor_type;location;lat;lon;timestamp;temperature;humidity
22098;DHT22;11215;51.938;8.464;2022-07-19T00:00:17;25.40;41.20
22098;DHT22;11215;51.938;8.464;2022-07-19T00:02:44;25.30;41.40
22098;DHT22;11215;51.938;8.464;2022-07-19T00:05:11;25.20;41.20
22098;DHT22;11215;51.938;8.464;2022-07-19T00:07:37;25.10;41.40
22098;DHT22;11215;51.938;8.464;2022-07-19T00:10:05;25.10;41.50
22098;DHT22;11215;51.938;8.464;2022-07-19T00:12:31;25.00;41.80
22098;DHT22;11215;51.938;8.464;2022-07-19T00:14:57;24.90;41.80
22098;DHT22;11215;51.938;8.464;2022-07-19T00:17:23;24.90;42.00
22098;DHT22;11215;51.938;8.464;2022-07-19T00:19:48;24.90;42.10
22098;DHT22;11215;51.938;8.464;2022-07-19T00:22:14;24.80;42.10
22098;DHT22;11215;51.938;8.464;2022-07-19T00:24:40;24.80;42.20
22098;DHT22;11215;51.938;8.464;2022-07-19T00:27:05;24.80;42.40
22098;DHT22;11215;51.938;8.464;2022-07-19T00:29:31;24.70;42.50
22098;DHT22;11215;51.938;8.464;2022-07-19T00:31:57;24.70;42.50
22098;DHT22;11215;51.938;8.464;2022-07-19T00:34:22;24.60;42.60
22098;DHT22;11215;51.938;8.464;2022-07-19T00:36:48;24.60;42.60
22098;DHT22;11215;51.938;8.464;2022-07-19T00:39:13;24.60;42.70
22098;DHT22;11215;51.938;8.464;2022-07-19T00:41:40;24.60;42.70
22098;DHT22;11215;51.938;8.464;2022-07-19T00:44:07;24.60;42.90
22098;DHT22;11215;51.938;8.464;2022-07-19T00:46:33;24.50;42.90
22098;DHT22;11215;51.938;8.464;2022-07-19T00:48:58;24.50;42.90
22098;DHT22;11215;51.938;8.464;2022-07-19T00:51:24;24.50;43.00
22098;DHT22;11215;51.938;8.464;2022-07-19T00:53:50;24.40;43.00
22098;DHT22;11215;51.938;8.464;2022-07-19T00:56:17;24.40;43.10
22098;DHT22;11215;51.938;8.464;2022-07-19T00:58:44;24.40;43.20
22098;DHT22;11215;51.938;8.464;2022-07-19T01:01:10;24.40;43.30
22098;DHT22;11215;51.938;8.464;2022-07-19T01:03:38;24.30;43.30
22098;DHT22;11215;51.938;8.464;2022-07-19T01:06:04;24.30;43.40
22098;DHT22;11215;51.938;8.464;2022-07-19T01:08:29;24.20;43.30
22098;DHT22;11215;51.938;8.464;2022-07-19T01:10:55;24.20;43.30
22098;DHT22;11215;51.938;8.464;2022-07-19T01:13:21;24.20;43.40
22098;DHT22;11215;51.938;8.464;2022-07-19T01:15:47;24.10;43.50
22098;DHT22;11215;51.938;8.464;2022-07-19T01:18:12;24.10;43.50
22098;DHT22;11215;51.938;8.464;2022-07-19T01:20:38;24.00;43.50
22098;DHT22;11215;51.938;8.464;2022-07-19T01:23:03;24.00;43.80
22098;DHT22;11215;51.938;8.464;2022-07-19T01:25:35;24.00;43.80
22098;DHT22;11215;51.938;8.464;2022-07-19T01:28:03;23.90;44.40
22098;DHT22;11215;51.938;8.464;2022-07-19T01:30:30;23.90;44.20
22098;DHT22;11215;51.938;8.464;2022-07-19T01:32:56;23.90;44.20
22098;DHT22;11215;51.938;8.464;2022-07-19T01:35:22;23.80;44.20
22098;DHT22;11215;51.938;8.464;2022-07-19T01:37:48;23.80;44.30
22098;DHT22;11215;51.938;8.464;2022-07-19T01:40:16;23.80;44.50
22098;DHT22;11215;51.938;8.464;2022-07-19T01:42:42;23.80;44.60
22098;DHT22;11215;51.938;8.464;2022-07-19T01:45:09;23.70;44.50
22098;DHT22;11215;51.938;8.464;2022-07-19T01:47:36;23.70;44.50
22098;DHT22;11215;51.938;8.464;2022-07-19T01:50:03;23.60;44.50
22098;DHT22;11215;51.938;8.464;2022-07-19T01:52:29;23.60;44.80
22098;DHT22;11215;51.938;8.464;2022-07-19T01:54:55;23.60;44.70
22098;DHT22;11215;51.938;8.464;2022-07-19T01:57:20;23.60;44.80
22098;DHT22;11215;51.938;8.464;2022-07-19T01:59:46;23.50;44.70
22098;DHT22;11215;51.938;8.464;2022-07-19T02:02:12;23.50;44.70
22098;DHT22;11215;51.938;8.464;2022-07-19T02:04:37;23.50;44.80
22098;DHT22;11215;51.938;8.464;2022-07-19T02:07:03;23.40;44.80
22098;DHT22;11215;51.938;8.464;2022-07-19T02:09:29;23.40;44.90
22098;DHT22;11215;51.938;8.464;2022-07-19T02:11:54;23.40;45.00
22098;DHT22;11215;51.938;8.464;2022-07-19T02:14:20;23.40;45.10
22098;DHT22;11215;51.938;8.464;2022-07-19T02:16:46;23.30;45.10
22098;DHT22;11215;51.938;8.464;2022-07-19T02:19:11;23.30;45.10
22098;DHT22;11215;51.938;8.464;2022-07-19T02:21:38;23.20;45.20
22098;DHT22;11215;51.938;8.464;2022-07-19T02:24:05;23.20;45.30
22098;DHT22;11215;51.938;8.464;2022-07-19T02:26:32;23.20;45.50
22098;DHT22;11215;51.938;8.464;2022-07-19T02:28:58;23.10;45.40
22098;DHT22;11215;51.938;8.464;2022-07-19T02:31:23;23.10;45.50
22098;DHT22;11215;51.938;8.464;2022-07-19T02:33:49;23.00;45.50
22098;DHT22;11215;51.938;8.464;2022-07-19T02:36:15;23.00;45.50
22098;DHT22;11215;51.938;8.464;2022-07-19T02:38:42;22.90;45.50
22098;DHT22;11215;51.938;8.464;2022-07-19T02:41:08;22.90;45.70
22098;DHT22;11215;51.938;8.464;2022-07-19T02:43:33;22.90;46.50
22098;DHT22;11215;51.938;8.464;2022-07-19T02:45:59;22.80;45.80
22098;DHT22;11215;51.938;8.464;2022-07-19T02:48:24;22.80;45.90
22098;DHT22;11215;51.938;8.464;2022-07-19T02:50:50;22.80;46.10
22098;DHT22;11215;51.938;8.464;2022-07-19T02:53:15;22.80;46.30
22098;DHT22;11215;51.938;8.464;2022-07-19T02:55:41;22.70;46.20
22098;DHT22;11215;51.938;8.464;2022-07-19T02:58:07;22.70;46.30
22098;DHT22;11215;51.938;8.464;2022-07-19T03:00:33;22.70;46.30
22098;DHT22;11215;51.938;8.464;2022-07-19T03:02:58;22.60;46.30
22098;DHT22;11215;51.938;8.464;2022-07-19T03:05:44;22.60;46.40
22098;DHT22;11215;51.938;8.464;2022-07-19T03:08:10;22.60;46.30
22098;DHT22;11215;51.938;8.464;2022-07-19T03:10:36;22.50;46.30
22098;DHT22;11215;51.938;8.464;2022-07-19T03:13:02;22.50;46.50
22098;DHT22;11215;51.938;8.464;2022-07-19T03:15:29;22.40;46.50
22098;DHT22;11215;51.938;8.464;2022-07-19T03:17:54;22.40;46.80
22098;DHT22;11215;51.938;8.464;2022-07-19T03:20:20;22.30;46.80
22098;DHT22;11215;51.938;8.464;2022-07-19T03:22:45;22.30;46.90
22098;DHT22;11215;51.938;8.464;2022-07-19T03:25:11;22.30;46.90
22098;DHT22;11215;51.938;8.464;2022-07-19T03:27:37;22.20;46.90
22098;DHT22;11215;51.938;8.464;2022-07-19T03:30:04;22.20;47.00
22098;DHT22;11215;51.938;8.464;2022-07-19T03:32:30;22.20;47.20
22098;DHT22;11215;51.938;8.464;2022-07-19T03:34:55;22.20;47.20
22098;DHT22;11215;51.938;8.464;2022-07-19T03:37:22;22.20;47.20
22098;DHT22;11215;51.938;8.464;2022-07-19T03:39:48;22.10;47.20
22098;DHT22;11215;51.938;8.464;2022-07-19T03:42:14;22.10;47.30
22098;DHT22;11215;51.938;8.464;2022-07-19T03:44:39;22.10;47.40
22098;DHT22;11215;51.938;8.464;2022-07-19T03:47:05;22.10;47.50
22098;DHT22;11215;51.938;8.464;2022-07-19T03:49:31;22.10;47.50
22098;DHT22;11215;51.938;8.464;2022-07-19T03:51:57;22.00;47.50
22098;DHT22;11215;51.938;8.464;2022-07-19T03:54:23;22.00;47.70
22098;DHT22;11215;51.938;8.464;2022-07-19T03:56:49;22.00;47.60
22098;DHT22;11215;51.938;8.464;2022-07-19T03:59:14;22.00;47.70
22098;DHT22;11215;51.938;8.464;2022-07-19T04:01:40;22.00;47.70
22098;DHT22;11215;51.938;8.464;2022-07-19T04:04:06;22.00;47.80
22098;DHT22;11215;51.938;8.464;2022-07-19T04:06:32;21.90;47.90
22098;DHT22;11215;51.938;8.464;2022-07-19T04:08:58;21.90;47.90
22098;DHT22;11215;51.938;8.464;2022-07-19T04:11:23;21.90;48.10
22098;DHT22;11215;51.938;8.464;2022-07-19T04:13:49;21.90;48.10
22098;DHT22;11215;51.938;8.464;2022-07-19T04:16:15;21.90;48.20
22098;DHT22;11215;51.938;8.464;2022-07-19T04:18:41;21.90;48.30
22098;DHT22;11215;51.938;8.464;2022-07-19T04:21:06;21.90;48.30
22098;DHT22;11215;51.938;8.464;2022-07-19T04:23:32;21.90;48.40
22098;DHT22;11215;51.938;8.464;2022-07-19T04:25:58;21.90;48.40
22098;DHT22;11215;51.938;8.464;2022-07-19T04:28:24;21.90;48.40
22098;DHT22;11215;51.938;8.464;2022-07-19T04:30:50;21.90;48.40
22098;DHT22;11215;51.938;8.464;2022-07-19T04:33:18;21.90;48.50
22098;DHT22;11215;51.938;8.464;2022-07-19T04:35:44;21.90;48.70
22098;DHT22;11215;51.938;8.464;2022-07-19T04:38:10;21.90;48.70
22098;DHT22;11215;51.938;8.464;2022-07-19T04:40:37;21.90;48.80
22098;DHT22;11215;51.938;8.464;2022-07-19T04:43:02;22.00;48.90
22098;DHT22;11215;51.938;8.464;2022-07-19T04:45:29;22.00;48.90
22098;DHT22;11215;51.938;8.464;2022-07-19T04:47:55;22.00;49.10
22098;DHT22;11215;51.938;8.464;2022-07-19T04:50:20;22.00;49.20
22098;DHT22;11215;51.938;8.464;2022-07-19T04:52:46;22.10;49.50
22098;DHT22;11215;51.938;8.464;2022-07-19T04:55:12;22.20;50.00
22098;DHT22;11215;51.938;8.464;2022-07-19T04:57:38;22.30;50.30
22098;DHT22;11215;51.938;8.464;2022-07-19T05:00:06;22.50;50.60
22098;DHT22;11215;51.938;8.464;2022-07-19T05:02:34;22.70;50.70
22098;DHT22;11215;51.938;8.464;2022-07-19T05:05:00;23.00;50.80
22098;DHT22;11215;51.938;8.464;2022-07-19T05:07:26;23.40;50.80
22098;DHT22;11215;51.938;8.464;2022-07-19T05:09:52;23.70;50.60
22098;DHT22;11215;51.938;8.464;2022-07-19T05:12:17;24.00;50.50
22098;DHT22;11215;51.938;8.464;2022-07-19T05:14:43;24.50;50.30
22098;DHT22;11215;51.938;8.464;2022-07-19T05:17:09;24.80;50.00
22098;DHT22;11215;51.938;8.464;2022-07-19T05:19:34;25.20;49.70
22098;DHT22;11215;51.938;8.464;2022-07-19T05:22:00;25.60;49.50
22098;DHT22;11215;51.938;8.464;2022-07-19T05:24:26;26.00;49.10
22098;DHT22;11215;51.938;8.464;2022-07-19T05:26:51;26.40;48.70
22098;DHT22;11215;51.938;8.464;2022-07-19T05:29:17;26.80;48.50
22098;DHT22;11215;51.938;8.464;2022-07-19T05:31:43;27.20;48.20
22098;DHT22;11215;51.938;8.464;2022-07-19T05:34:09;27.50;47.70
22098;DHT22;11215;51.938;8.464;2022-07-19T05:36:35;27.90;47.20
22098;DHT22;11215;51.938;8.464;2022-07-19T05:39:00;28.30;46.80
22098;DHT22;11215;51.938;8.464;2022-07-19T05:41:26;28.70;46.50
22098;DHT22;11215;51.938;8.464;2022-07-19T05:43:52;29.00;46.00
22098;DHT22;11215;51.938;8.464;2022-07-19T05:46:20;29.30;45.30
22098;DHT22;11215;51.938;8.464;2022-07-19T05:48:50;29.50;44.60
22098;DHT22;11215;51.938;8.464;2022-07-19T05:51:23;29.80;44.30
22098;DHT22;11215;51.938;8.464;2022-07-19T05:53:48;30.00;44.00
22098;DHT22;11215;51.938;8.464;2022-07-19T05:56:14;30.10;43.80
22098;DHT22;11215;51.938;8.464;2022-07-19T05:58:40;30.30;43.50
22098;DHT22;11215;51.938;8.464;2022-07-19T06:01:06;30.40;43.10
22098;DHT22;11215;51.938;8.464;2022-07-19T06:03:47;30.40;42.90
22098;DHT22;11215;51.938;8.464;2022-07-19T06:06:14;30.60;42.80
22098;DHT22;11215;51.938;8.464;2022-07-19T06:08:40;30.70;43.10
22098;DHT22;11215;51.938;8.464;2022-07-19T06:11:06;30.90;43.40
22098;DHT22;11215;51.938;8.464;2022-07-19T06:13:32;31.10;43.20
22098;DHT22;11215;51.938;8.464;2022-07-19T06:15:57;31.40;43.10
22098;DHT22;11215;51.938;8.464;2022-07-19T06:18:35;31.70;43.00
22098;DHT22;11215;51.938;8.464;2022-07-19T06:21:06;31.90;42.30
22098;DHT22;11215;51.938;8.464;2022-07-19T06:23:32;32.30;42.20
22098;DHT22;11215;51.938;8.464;2022-07-19T06:26:06;32.60;42.20
22098;DHT22;11215;51.938;8.464;2022-07-19T06:28:38;32.90;41.10
22098;DHT22;11215;51.938;8.464;2022-07-19T06:31:13;33.20;40.60
22098;DHT22;11215;51.938;8.464;2022-07-19T06:33:40;33.40;39.50
22098;DHT22;11215;51.938;8.464;2022-07-19T06:36:06;33.60;38.90
22098;DHT22;11215;51.938;8.464;2022-07-19T06:38:32;33.50;38.30
22098;DHT22;11215;51.938;8.464;2022-07-19T06:40:58;33.50;38.10
22098;DHT22;11215;51.938;8.464;2022-07-19T06:43:23;33.30;37.60
22098;DHT22;11215;51.938;8.464;2022-07-19T06:45:49;33.10;37.30
22098;DHT22;11215;51.938;8.464;2022-07-19T06:48:15;32.90;37.10
22098;DHT22;11215;51.938;8.464;2022-07-19T06:50:40;32.70;36.60
22098;DHT22;11215;51.938;8.464;2022-07-19T06:53:06;32.50;36.60
22098;DHT22;11215;51.938;8.464;2022-07-19T06:55:31;32.30;36.40
22098;DHT22;11215;51.938;8.464;2022-07-19T06:57:57;32.10;36.00
22098;DHT22;11215;51.938;8.464;2022-07-19T07:00:23;31.90;35.60
22098;DHT22;11215;51.938;8.464;2022-07-19T07:02:48;31.80;35.60
22098;DHT22;11215;51.938;8.464;2022-07-19T07:05:14;31.60;35.60
22098;DHT22;11215;51.938;8.464;2022-07-19T07:07:40;31.50;35.80
22098;DHT22;11215;51.938;8.464;2022-07-19T07:10:07;31.30;35.70
22098;DHT22;11215;51.938;8.464;2022-07-19T07:12:34;31.20;35.90
22098;DHT22;11215;51.938;8.464;2022-07-19T07:15:00;31.10;35.80
22098;DHT22;11215;51.938;8.464;2022-07-19T07:17:26;30.90;35.90
22098;DHT22;11215;51.938;8.464;2022-07-19T07:19:51;30.80;35.80
22098;DHT22;11215;51.938;8.464;2022-07-19T07:22:17;30.70;36.10
22098;DHT22;11215;51.938;8.464;2022-07-19T07:24:43;30.60;36.20
22098;DHT22;11215;51.938;8.464;2022-07-19T07:27:09;30.50;36.30
22098;DHT22;11215;51.938;8.464;2022-07-19T07:29:34;30.50;36.50
22098;DHT22;11215;51.938;8.464;2022-07-19T07:32:00;30.40;36.30
22098;DHT22;11215;51.938;8.464;2022-07-19T07:37:42;30.30;35.90
22098;DHT22;11215;51.938;8.464;2022-07-19T07:40:13;30.30;36.40
22098;DHT22;11215;51.938;8.464;2022-07-19T07:42:39;30.30;36.10
22098;DHT22;11215;51.938;8.464;2022-07-19T07:45:05;30.30;36.10
22098;DHT22;11215;51.938;8.464;2022-07-19T07:47:32;30.30;36.10
22098;DHT22;11215;51.938;8.464;2022-07-19T07:49:58;30.30;36.10
22098;DHT22;11215;51.938;8.464;2022-07-19T07:52:23;30.30;36.00
22098;DHT22;11215;51.938;8.464;2022-07-19T07:54:49;30.30;36.00
22098;DHT22;11215;51.938;8.464;2022-07-19T07:57:15;30.30;35.80
22098;DHT22;11215;51.938;8.464;2022-07-19T07:59:41;30.30;35.70
22098;DHT22;11215;51.938;8.464;2022-07-19T08:02:07;30.40;35.40
22098;DHT22;11215;51.938;8.464;2022-07-19T08:04:32;30.40;35.30
22098;DHT22;11215;51.938;8.464;2022-07-19T08:06:58;30.40;35.20
22098;DHT22;11215;51.938;8.464;2022-07-19T08:09:24;30.50;35.10
22098;DHT22;11215;51.938;8.464;2022-07-19T08:11:49;30.50;34.80
22098;DHT22;11215;51.938;8.464;2022-07-19T08:14:15;30.60;34.70
22098;DHT22;11215;51.938;8.464;2022-07-19T08:16:41;30.60;34.80
22098;DHT22;11215;51.938;8.464;2022-07-19T08:19:06;30.70;34.70
22098;DHT22;11215;51.938;8.464;2022-07-19T08:21:32;30.70;34.50
22098;DHT22;11215;51.938;8.464;2022-07-19T08:23:58;30.80;34.80
22098;DHT22;11215;51.938;8.464;2022-07-19T08:26:23;30.80;34.30
22098;DHT22;11215;51.938;8.464;2022-07-19T08:28:49;30.90;34.50
22098;DHT22;11215;51.938;8.464;2022-07-19T08:31:15;30.90;34.30
22098;DHT22;11215;51.938;8.464;2022-07-19T08:33:41;31.00;34.10
22098;DHT22;11215;51.938;8.464;2022-07-19T08:36:07;31.00;34.10
22098;DHT22;11215;51.938;8.464;2022-07-19T08:38:32;31.10;34.00
22098;DHT22;11215;51.938;8.464;2022-07-19T08:40:59;31.20;33.80
22098;DHT22;11215;51.938;8.464;2022-07-19T08:43:26;31.20;33.40
22098;DHT22;11215;51.938;8.464;2022-07-19T08:45:52;31.30;33.30
22098;DHT22;11215;51.938;8.464;2022-07-19T08:51:05;31.40;32.70
22098;DHT22;11215;51.938;8.464;2022-07-19T08:53:59;31.50;33.30
22098;DHT22;11215;51.938;8.464;2022-07-19T08:56:24;31.60;32.90
22098;DHT22;11215;51.938;8.464;2022-07-19T08:59:08;31.60;32.80
22098;DHT22;11215;51.938;8.464;2022-07-19T09:01:34;31.70;32.60
22098;DHT22;11215;51.938;8.464;2022-07-19T09:06:46;31.90;32.20
22098;DHT22;11215;51.938;8.464;2022-07-19T09:09:13;31.90;31.70
22098;DHT22;11215;51.938;8.464;2022-07-19T09:11:42;32.00;31.90
22098;DHT22;11215;51.938;8.464;2022-07-19T09:14:21;32.10;31.90
22098;DHT22;11215;51.938;8.464;2022-07-19T09:19:43;32.30;31.00
22098;DHT22;11215;51.938;8.464;2022-07-19T09:22:15;32.30;31.10
22098;DHT22;11215;51.938;8.464;2022-07-19T09:24:49;32.40;30.70
22098;DHT22;11215;51.938;8.464;2022-07-19T09:27:18;32.50;30.40
22098;DHT22;11215;51.938;8.464;2022-07-19T09:29:46;32.50;30.70
22098;DHT22;11215;51.938;8.464;2022-07-19T09:32:14;32.60;30.60
22098;DHT22;11215;51.938;8.464;2022-07-19T09:34:58;32.60;30.40
22098;DHT22;11215;51.938;8.464;2022-07-19T09:37:28;32.70;29.90
22098;DHT22;11215;51.938;8.464;2022-07-19T09:39:56;32.80;30.00
22098;DHT22;11215;51.938;8.464;2022-07-19T09:42:43;32.80;30.20
22098;DHT22;11215;51.938;8.464;2022-07-19T09:45:15;32.90;30.10
22098;DHT22;11215;51.938;8.464;2022-07-19T09:47:46;33.00;29.70
22098;DHT22;11215;51.938;8.464;2022-07-19T09:50:17;33.00;29.10
22098;DHT22;11215;51.938;8.464;2022-07-19T09:52:47;33.10;29.30
22098;DHT22;11215;51.938;8.464;2022-07-19T09:55:14;33.20;29.00
22098;DHT22;11215;51.938;8.464;2022-07-19T09:57:42;33.30;29.40
22098;DHT22;11215;51.938;8.464;2022-07-19T10:00:11;33.30;29.10
22098;DHT22;11215;51.938;8.464;2022-07-19T10:02:39;33.40;29.20
22098;DHT22;11215;51.938;8.464;2022-07-19T10:05:05;33.50;29.30
22098;DHT22;11215;51.938;8.464;2022-07-19T10:07:32;33.60;29.10
22098;DHT22;11215;51.938;8.464;2022-07-19T10:10:01;33.60;29.10
22098;DHT22;11215;51.938;8.464;2022-07-19T10:12:28;33.60;28.50
22098;DHT22;11215;51.938;8.464;2022-07-19T10:14:55;33.70;28.60
22098;DHT22;11215;51.938;8.464;2022-07-19T10:17:34;33.80;28.30
22098;DHT22;11215;51.938;8.464;2022-07-19T10:20:02;33.80;28.10
22098;DHT22;11215;51.938;8.464;2022-07-19T10:22:29;33.90;28.20
22098;DHT22;11215;51.938;8.464;2022-07-19T10:25:06;33.90;27.90
22098;DHT22;11215;51.938;8.464;2022-07-19T10:27:44;34.00;27.90
22098;DHT22;11215;51.938;8.464;2022-07-19T10:32:36;34.10;28.20
22098;DHT22;11215;51.938;8.464;2022-07-19T10:37:53;34.30;27.30
22098;DHT22;11215;51.938;8.464;2022-07-19T10:40:53;34.30;27.20
22098;DHT22;11215;51.938;8.464;2022-07-19T10:43:22;34.50;27.10
22098;DHT22;11215;51.938;8.464;2022-07-19T10:51:06;34.70;26.60
22098;DHT22;11215;51.938;8.464;2022-07-19T10:56:20;34.80;26.80
22098;DHT22;11215;51.938;8.464;2022-07-19T10:58:51;34.90;26.40
22098;DHT22;11215;51.938;8.464;2022-07-19T11:01:19;34.90;26.90
22098;DHT22;11215;51.938;8.464;2022-07-19T11:03:46;35.00;26.70
22098;DHT22;11215;51.938;8.464;2022-07-19T11:06:23;35.10;26.30
22098;DHT22;11215;51.938;8.464;2022-07-19T11:08:53;35.20;25.70
22098;DHT22;11215;51.938;8.464;2022-07-19T11:11:19;35.20;25.60
22098;DHT22;11215;51.938;8.464;2022-07-19T11:13:51;35.30;25.60
22098;DHT22;11215;51.938;8.464;2022-07-19T11:16:18;35.30;25.20
22098;DHT22;11215;51.938;8.464;2022-07-19T11:18:44;35.40;25.80
22098;DHT22;11215;51.938;8.464;2022-07-19T11:21:11;35.50;25.70
22098;DHT22;11215;51.938;8.464;2022-07-19T11:23:41;35.50;25.80
22098;DHT22;11215;51.938;8.464;2022-07-19T11:26:16;35.60;25.70
22098;DHT22;11215;51.938;8.464;2022-07-19T11:28:47;35.70;25.40
22098;DHT22;11215;51.938;8.464;2022-07-19T11:31:22;35.80;25.40
22098;DHT22;11215;51.938;8.464;2022-07-19T11:33:51;35.90;24.80
22098;DHT22;11215;51.938;8.464;2022-07-19T11:36:19;36.00;25.00
22098;DHT22;11215;51.938;8.464;2022-07-19T11:38:52;36.10;25.20
22098;DHT22;11215;51.938;8.464;2022-07-19T11:46:27;36.30;24.80
22098;DHT22;11215;51.938;8.464;2022-07-19T11:48:57;36.30;24.40
22098;DHT22;11215;51.938;8.464;2022-07-19T11:51:24;36.40;24.50
22098;DHT22;11215;51.938;8.464;2022-07-19T11:53:52;36.50;24.60
22098;DHT22;11215;51.938;8.464;2022-07-19T11:56:23;36.60;24.30
22098;DHT22;11215;51.938;8.464;2022-07-19T11:58:50;36.60;24.50
22098;DHT22;11215;51.938;8.464;2022-07-19T12:01:26;36.70;24.40
22098;DHT22;11215;51.938;8.464;2022-07-19T12:03:54;36.80;24.30
22098;DHT22;11215;51.938;8.464;2022-07-19T12:06:19;36.80;24.40
22098;DHT22;11215;51.938;8.464;2022-07-19T12:09:08;36.90;24.20
22098;DHT22;11215;51.938;8.464;2022-07-19T12:11:52;37.00;24.20
22098;DHT22;11215;51.938;8.464;2022-07-19T12:16:44;37.10;23.90
22098;DHT22;11215;51.938;8.464;2022-07-19T12:19:11;37.20;23.90
22098;DHT22;11215;51.938;8.464;2022-07-19T12:21:43;37.20;23.90
22098;DHT22;11215;51.938;8.464;2022-07-19T12:31:47;37.60;23.70
22098;DHT22;11215;51.938;8.464;2022-07-19T12:34:14;37.60;23.10
22098;DHT22;11215;51.938;8.464;2022-07-19T12:36:40;37.70;23.40
22098;DHT22;11215;51.938;8.464;2022-07-19T12:39:23;37.70;23.20
22098;DHT22;11215;51.938;8.464;2022-07-19T12:41:54;37.80;22.60
22098;DHT22;11215;51.938;8.464;2022-07-19T12:44:20;37.90;22.90
22098;DHT22;11215;51.938;8.464;2022-07-19T12:46:45;38.00;22.90
22098;DHT22;11215;51.938;8.464;2022-07-19T12:49:11;38.10;22.70
22098;DHT22;11215;51.938;8.464;2022-07-19T12:51:37;38.10;22.00
22098;DHT22;11215;51.938;8.464;2022-07-19T12:54:07;38.20;21.90
22098;DHT22;11215;51.938;8.464;2022-07-19T12:56:33;38.20;21.90
22098;DHT22;11215;51.938;8.464;2022-07-19T12:58:59;38.20;21.70
22098;DHT22;11215;51.938;8.464;2022-07-19T13:01:43;38.30;21.70
22098;DHT22;11215;51.938;8.464;2022-07-19T13:04:09;38.30;21.90
22098;DHT22;11215;51.938;8.464;2022-07-19T13:06:35;38.40;22.10
22098;DHT22;11215;51.938;8.464;2022-07-19T13:09:01;38.40;21.40
22098;DHT22;11215;51.938;8.464;2022-07-19T13:11:27;38.50;21.90
22098;DHT22;11215;51.938;8.464;2022-07-19T13:13:53;38.50;21.20
22098;DHT22;11215;51.938;8.464;2022-07-19T13:16:18;38.50;21.30
22098;DHT22;11215;51.938;8.464;2022-07-19T13:18:46;38.60;21.50
22098;DHT22;11215;51.938;8.464;2022-07-19T13:21:15;38.60;21.20
22098;DHT22;11215;51.938;8.464;2022-07-19T13:23:41;38.70;21.30
22098;DHT22;11215;51.938;8.464;2022-07-19T13:26:07;38.70;21.50
22098;DHT22;11215;51.938;8.464;2022-07-19T13:28:32;38.80;20.90
22098;DHT22;11215;51.938;8.464;2022-07-19T13:31:00;38.80;20.90
22098;DHT22;11215;51.938;8.464;2022-07-19T13:33:26;38.80;20.50
22098;DHT22;11215;51.938;8.464;2022-07-19T13:35:51;38.90;20.40
22098;DHT22;11215;51.938;8.464;2022-07-19T13:38:17;39.00;20.60
22098;DHT22;11215;51.938;8.464;2022-07-19T13:40:43;39.00;20.30
22098;DHT22;11215;51.938;8.464;2022-07-19T13:43:09;39.00;20.30
22098;DHT22;11215;51.938;8.464;2022-07-19T13:45:34;39.00;20.20
22098;DHT22;11215;51.938;8.464;2022-07-19T13:48:00;39.10;20.30
22098;DHT22;11215;51.938;8.464;2022-07-19T13:50:26;39.10;20.40
22098;DHT22;11215;51.938;8.464;2022-07-19T13:52:52;39.10;20.30
22098;DHT22;11215;51.938;8.464;2022-07-19T13:55:17;39.10;19.80
22098;DHT22;11215;51.938;8.464;2022-07-19T13:57:43;39.20;19.70
22098;DHT22;11215;51.938;8.464;2022-07-19T14:00:09;39.20;19.70
22098;DHT22;11215;51.938;8.464;2022-07-19T14:02:37;39.20;20.00
22098;DHT22;11215;51.938;8.464;2022-07-19T14:05:03;39.20;19.80
22098;DHT22;11215;51.938;8.464;2022-07-19T14:07:30;39.20;20.10
22098;DHT22;11215;51.938;8.464;2022-07-19T14:09:55;39.30;20.00
22098;DHT22;11215;51.938;8.464;2022-07-19T14:12:21;39.30;19.80
22098;DHT22;11215;51.938;8.464;2022-07-19T14:14:47;39.40;20.00
22098;DHT22;11215;51.938;8.464;2022-07-19T14:17:12;39.40;19.70
22098;DHT22;11215;51.938;8.464;2022-07-19T14:19:42;39.50;19.50
22098;DHT22;11215;51.938;8.464;2022-07-19T14:22:07;39.50;19.90
22098;DHT22;11215;51.938;8.464;2022-07-19T14:24:33;39.50;19.10
22098;DHT22;11215;51.938;8.464;2022-07-19T14:26:59;39.60;19.20
22098;DHT22;11215;51.938;8.464;2022-07-19T14:29:25;39.60;19.10
22098;DHT22;11215;51.938;8.464;2022-07-19T14:31:50;39.60;19.20
22098;DHT22;11215;51.938;8.464;2022-07-19T14:34:16;39.60;19.30
22098;DHT22;11215;51.938;8.464;2022-07-19T14:36:42;39.60;19.20
22098;DHT22;11215;51.938;8.464;2022-07-19T14:39:08;39.60;19.10
22098;DHT22;11215;51.938;8.464;2022-07-19T14:41:35;39.70;19.20
22098;DHT22;11215;51.938;8.464;2022-07-19T14:44:01;39.80;19.20
22098;DHT22;11215;51.938;8.464;2022-07-19T14:46:26;39.80;19.10
22098;DHT22;11215;51.938;8.464;2022-07-19T14:48:52;39.80;19.20
22098;DHT22;11215;51.938;8.464;2022-07-19T14:51:18;39.90;19.00
22098;DHT22;11215;51.938;8.464;2022-07-19T14:53:43;39.90;18.70
22098;DHT22;11215;51.938;8.464;2022-07-19T14:56:09;39.90;18.70
22098;DHT22;11215;51.938;8.464;2022-07-19T14:58:35;40.00;18.70
22098;DHT22;11215;51.938;8.464;2022-07-19T15:01:01;40.00;18.60
22098;DHT22;11215;51.938;8.464;2022-07-19T15:03:28;40.00;18.30
22098;DHT22;11215;51.938;8.464;2022-07-19T15:05:53;40.00;18.10
22098;DHT22;11215;51.938;8.464;2022-07-19T15:08:19;40.00;18.00
22098;DHT22;11215;51.938;8.464;2022-07-19T15:10:45;40.00;18.00
22098;DHT22;11215;51.938;8.464;2022-07-19T15:13:10;40.00;18.20
22098;DHT22;11215;51.938;8.464;2022-07-19T15:15:36;40.00;17.90
22098;DHT22;11215;51.938;8.464;2022-07-19T15:18:02;40.10;17.80
22098;DHT22;11215;51.938;8.464;2022-07-19T15:20:27;40.10;17.80
22098;DHT22;11215;51.938;8.464;2022-07-19T15:22:53;40.10;17.60
22098;DHT22;11215;51.938;8.464;2022-07-19T15:25:19;40.10;17.60
22098;DHT22;11215;51.938;8.464;2022-07-19T15:27:48;40.10;17.50
22098;DHT22;11215;51.938;8.464;2022-07-19T15:30:16;40.20;17.40
22098;DHT22;11215;51.938;8.464;2022-07-19T15:32:43;40.20;16.90
22098;DHT22;11215;51.938;8.464;2022-07-19T15:35:09;40.20;17.00
22098;DHT22;11215;51.938;8.464;2022-07-19T15:37:35;40.20;17.00
22098;DHT22;11215;51.938;8.464;2022-07-19T15:40:01;40.20;17.00
22098;DHT22;11215;51.938;8.464;2022-07-19T15:42:26;40.20;17.10
22098;DHT22;11215;51.938;8.464;2022-07-19T15:44:52;40.20;16.90
22098;DHT22;11215;51.938;8.464;2022-07-19T15:47:18;40.20;16.90
22098;DHT22;11215;51.938;8.464;2022-07-19T15:49:43;40.20;17.10
22098;DHT22;11215;51.938;8.464;2022-07-19T15:52:09;40.20;17.30
22098;DHT22;11215;51.938;8.464;2022-07-19T15:54:36;40.20;17.30
22098;DHT22;11215;51.938;8.464;2022-07-19T15:57:02;40.20;17.40
22098;DHT22;11215;51.938;8.464;2022-07-19T15:59:28;40.20;17.50
22098;DHT22;11215;51.938;8.464;2022-07-19T16:01:53;40.20;17.50
22098;DHT22;11215;51.938;8.464;2022-07-19T16:04:19;40.30;17.70
22098;DHT22;11215;51.938;8.464;2022-07-19T16:06:45;40.30;17.70
22098;DHT22;11215;51.938;8.464;2022-07-19T16:09:11;40.30;17.70